createdAt,value
2022-07-28T00:00:57.822Z,101411.78
2022-07-28T00:03:24.828Z,101404.78
2022-07-28T00:05:51.792Z,101401.47
2022-07-28T00:08:18.635Z,101405.19
2022-07-28T00:10:45.456Z,101408.19
2022-07-28T00:13:12.340Z,101402.84
2022-07-28T00:15:39.225Z,101402.66
2022-07-28T00:18:12.929Z,101401.84
2022-07-28T00:20:39.775Z,101401.84
2022-07-28T00:23:06.631Z,101401.00
2022-07-28T00:25:33.517Z,101402.84
2022-07-28T00:28:00.310Z,101404.50
2022-07-28T00:30:27.339Z,101408.00
2022-07-28T00:32:54.254Z,101406.16
2022-07-28T00:35:30.359Z,101406.16
2022-07-28T00:37:58.929Z,101400.81
2022-07-28T00:40:47.210Z,101405.19
2022-07-28T00:43:14.900Z,101387.47
2022-07-28T00:45:42.080Z,101396.50
2022-07-28T00:48:13.506Z,101383.16
2022-07-28T00:50:41.327Z,101378.81
2022-07-28T00:53:09.018Z,101376.78
2022-07-28T00:56:05.377Z,101378.63
2022-07-28T00:58:27.401Z,101382.13
2022-07-28T01:00:55.004Z,101370.81
2022-07-28T01:03:22.528Z,101378.00
2022-07-28T01:05:58.494Z,101371.84
2022-07-28T01:08:42.844Z,101371.00
2022-07-28T01:11:14.762Z,101376.75
2022-07-28T01:14:14.479Z,101383.31
2022-07-28T01:17:11.161Z,101375.31
2022-07-28T01:19:52.856Z,101374.69
2022-07-28T01:22:25.999Z,101373.03
2022-07-28T01:25:00.790Z,101368.50
2022-07-28T01:27:42.768Z,101366.66
2022-07-28T01:30:09.714Z,101370.16
2022-07-28T01:32:54.992Z,101357.19
2022-07-28T01:35:26.549Z,101355.56
2022-07-28T01:38:02.846Z,101358.25
2022-07-28T01:40:33.794Z,101354.94
2022-07-28T01:43:02.946Z,101354.09
2022-07-28T01:45:32.624Z,101354.50
2022-07-28T01:48:03.164Z,101345.69
2022-07-28T01:50:31.557Z,101345.69
2022-07-28T01:52:59.155Z,101337.47
2022-07-28T01:55:27.762Z,101335.59
2022-07-28T01:58:00.389Z,101335.41
2022-07-28T02:00:29.079Z,101337.06
2022-07-28T02:02:58.190Z,101342.41
2022-07-28T02:05:26.853Z,101330.72
2022-07-28T02:08:01.714Z,101331.56
2022-07-28T02:10:29.656Z,101327.03
2022-07-28T02:13:00.213Z,101326.00
2022-07-28T02:15:28.070Z,101329.50
2022-07-28T02:18:00.595Z,101325.16
2022-07-28T02:20:29.173Z,101331.97
2022-07-28T02:22:58.050Z,101322.72
2022-07-28T02:25:25.749Z,101326.22
2022-07-28T02:28:02.372Z,101311.88
2022-07-28T02:30:58.450Z,101309.84
2022-07-28T02:33:57.866Z,101310.22
2022-07-28T02:36:20.777Z,101314.53
2022-07-28T02:38:51.200Z,101311.88
2022-07-28T02:41:24.846Z,101306.53
2022-07-28T02:44:01.054Z,101312.50
2022-07-28T02:46:52.497Z,101313.31
2022-07-28T02:49:28.675Z,101307.16
2022-07-28T02:51:56.951Z,101304.50
2022-07-28T02:54:26.177Z,101301.59
2022-07-28T02:56:54.316Z,101298.13
2022-07-28T02:59:22.441Z,101297.31
2022-07-28T03:01:51.078Z,101296.25
2022-07-28T03:04:39.064Z,101298.13
2022-07-28T03:07:06.915Z,101298.13
2022-07-28T03:09:45.891Z,101301.81
2022-07-28T03:12:12.859Z,101303.47
2022-07-28T03:14:39.955Z,101305.94
2022-07-28T03:17:07.474Z,101306.75
2022-07-28T03:19:35.011Z,101297.72
2022-07-28T03:22:02.222Z,101301.22
2022-07-28T03:24:34.299Z,101301.22
2022-07-28T03:27:34.046Z,101297.72
2022-07-28T03:30:09.904Z,101300.41
2022-07-28T03:32:41.624Z,101307.56
2022-07-28T03:35:09.318Z,101302.25
2022-07-28T03:37:59.676Z,101305.56
2022-07-28T03:40:32.250Z,101305.09
2022-07-28T03:43:03.718Z,101310.66
2022-07-28T03:45:33.204Z,101302.66
2022-07-28T03:48:01.053Z,101308.59
2022-07-28T03:50:30.856Z,101311.91
2022-07-28T03:52:58.956Z,101307.38
2022-07-28T03:55:26.957Z,101302.25
2022-07-28T03:58:00.038Z,101304.91
2022-07-28T04:00:27.252Z,101301.22
2022-07-28T04:02:54.145Z,101297.91
2022-07-28T04:05:21.158Z,101302.25
2022-07-28T04:07:48.200Z,101300.25
2022-07-28T04:10:17.307Z,101301.66
2022-07-28T04:12:51.613Z,101294.69
2022-07-28T04:15:20.130Z,101293.88
2022-07-28T04:17:53.270Z,101293.88
2022-07-28T04:20:23.129Z,101298.41
2022-07-28T04:22:51.133Z,101292.84
2022-07-28T04:25:20.941Z,101303.50
2022-07-28T04:27:48.386Z,101292.66
2022-07-28T04:30:21.092Z,101299.00
2022-07-28T04:32:48.687Z,101291.81
2022-07-28T04:35:17.692Z,101293.22
2022-07-28T04:37:46.216Z,101292.59
2022-07-28T04:40:14.289Z,101288.06
2022-07-28T04:42:42.400Z,101290.75
2022-07-28T04:45:11.953Z,101297.91
2022-07-28T04:47:40.251Z,101287.88
2022-07-28T04:50:10.689Z,101288.06
2022-07-28T04:52:38.631Z,101286.22
2022-07-28T04:55:07.061Z,101287.72
2022-07-28T04:57:34.446Z,101292.00
2022-07-28T05:00:05.251Z,101290.63
2022-07-28T05:02:33.360Z,101288.78
2022-07-28T05:05:00.417Z,101289.56
2022-07-28T05:07:27.339Z,101290.63
2022-07-28T05:09:54.328Z,101289.78
2022-07-28T05:12:21.590Z,101292.47
2022-07-28T05:14:49.148Z,101288.97
2022-07-28T05:17:15.987Z,101286.09
2022-07-28T05:19:42.980Z,101293.06
2022-07-28T05:22:09.845Z,101300.88
2022-07-28T05:24:36.726Z,101290.38
2022-07-28T05:27:03.698Z,101294.09
2022-07-28T05:29:40.485Z,101296.78
2022-07-28T05:32:17.187Z,101295.72
2022-07-28T05:34:45.630Z,101301.53
2022-07-28T05:37:12.634Z,101298.03
2022-07-28T05:39:39.649Z,101295.97
2022-07-28T05:42:06.686Z,101294.94
2022-07-28T05:44:37.801Z,101293.91
2022-07-28T05:47:06.073Z,101298.44
2022-07-28T05:49:33.956Z,101299.25
2022-07-28T05:52:01.380Z,101298.25
2022-07-28T05:54:28.678Z,101292.06
2022-07-28T05:56:55.518Z,101304.19
2022-07-28T05:59:22.838Z,101302.34
2022-07-28T06:01:50.092Z,101302.78
2022-07-28T06:04:26.816Z,101294.38
2022-07-28T06:06:55.030Z,101288.22
2022-07-28T06:09:21.991Z,101291.94
2022-07-28T06:11:50.927Z,101293.19
2022-07-28T06:14:18.939Z,101286.59
2022-07-28T06:16:51.322Z,101301.41
2022-07-28T06:19:19.156Z,101296.47
2022-07-28T06:21:46.180Z,101289.91
2022-07-28T06:24:13.882Z,101295.25
2022-07-28T06:26:44.687Z,101292.78
2022-07-28T06:29:12.669Z,101286.81
2022-07-28T06:31:40.324Z,101293.81
2022-07-28T06:34:07.446Z,101294.81
2022-07-28T06:36:34.626Z,101294.44
2022-07-28T06:39:01.803Z,101304.91
2022-07-28T06:41:29.075Z,101303.69
2022-07-28T06:43:56.079Z,101305.94
2022-07-28T06:46:23.712Z,101303.06
2022-07-28T06:48:50.752Z,101303.06
2022-07-28T06:51:20.159Z,101305.56
2022-07-28T06:53:48.911Z,101310.91
2022-07-28T06:56:16.966Z,101305.56
2022-07-28T06:58:47.149Z,101305.56
2022-07-28T07:01:17.210Z,101302.66
2022-07-28T07:03:44.528Z,101301.44
2022-07-28T07:06:11.658Z,101306.16
2022-07-28T07:08:38.987Z,101305.97
2022-07-28T07:11:06.039Z,101305.78
2022-07-28T07:13:33.469Z,101308.03
2022-07-28T07:16:01.045Z,101307.00
2022-07-28T07:18:28.659Z,101312.16
2022-07-28T07:20:58.219Z,101318.09
2022-07-28T07:23:25.745Z,101310.28
2022-07-28T07:25:53.484Z,101319.97
2022-07-28T07:28:22.076Z,101308.84
2022-07-28T07:30:49.292Z,101311.53
2022-07-28T07:33:16.898Z,101317.31
2022-07-28T07:35:44.089Z,101297.19
2022-07-28T07:38:14.175Z,101301.09
2022-07-28T07:40:41.244Z,101296.38
2022-07-28T07:43:08.136Z,101286.28
2022-07-28T07:45:35.814Z,101293.25
2022-07-28T07:48:10.491Z,101290.19
2022-07-28T07:50:38.796Z,101286.28
2022-07-28T07:53:06.405Z,101282.78
2022-07-28T07:55:37.391Z,101287.69
2022-07-28T07:58:09.743Z,101283.56
2022-07-28T08:00:41.471Z,101290.38
2022-07-28T08:03:11.456Z,101282.34
2022-07-28T08:05:41.425Z,101290.59
2022-07-28T08:08:12.378Z,101285.47
2022-07-28T08:10:40.501Z,101285.47
2022-07-28T08:13:08.258Z,101285.47
2022-07-28T08:15:35.696Z,101282.16
2022-07-28T08:18:09.531Z,101283.78
2022-07-28T08:20:36.513Z,101288.94
2022-07-28T08:23:05.048Z,101281.72
2022-07-28T08:25:35.638Z,101288.31
2022-07-28T08:28:09.729Z,101286.25
2022-07-28T08:30:36.740Z,101293.03
2022-07-28T08:33:03.914Z,101283.97
2022-07-28T08:35:34.669Z,101295.31
2022-07-28T08:38:11.499Z,101288.69
2022-07-28T08:40:40.023Z,101293.66
2022-07-28T08:43:18.512Z,101290.34
2022-07-28T08:45:52.555Z,101292.59
2022-07-28T08:48:35.945Z,101287.88
2022-07-28T08:51:10.404Z,101285.59
2022-07-28T08:53:39.631Z,101292.16
2022-07-28T08:56:08.967Z,101280.81
2022-07-28T08:58:38.184Z,101286.59
2022-07-28T09:01:11.355Z,101276.94
2022-07-28T09:03:40.274Z,101278.34
2022-07-28T09:06:08.206Z,101293.38
2022-07-28T09:08:46.193Z,101283.69
2022-07-28T09:11:13.168Z,101284.31
2022-07-28T09:13:40.178Z,101287.19
2022-07-28T09:16:07.224Z,101282.41
2022-07-28T09:18:34.094Z,101270.00
2022-07-28T09:21:01.326Z,101286.81
2022-07-28T09:23:44.533Z,101278.94
2022-07-28T09:26:12.952Z,101281.75
2022-07-28T09:28:52.522Z,101277.81
2022-07-28T09:31:20.305Z,101278.84
2022-07-28T09:33:57.571Z,101276.38
2022-07-28T09:36:24.936Z,101279.50
2022-07-28T09:38:52.630Z,101271.66
2022-07-28T09:41:22.108Z,101272.94
2022-07-28T09:43:54.793Z,101278.28
2022-07-28T09:46:29.443Z,101276.66
2022-07-28T09:48:59.151Z,101272.94
2022-07-28T09:51:31.279Z,101276.84
2022-07-28T09:54:16.463Z,101264.28
2022-07-28T09:56:45.856Z,101272.31
2022-07-28T09:59:14.562Z,101265.09
2022-07-28T10:01:59.925Z,101271.25
2022-07-28T10:04:40.596Z,101266.44
2022-07-28T10:07:17.387Z,101263.53
2022-07-28T10:09:55.369Z,101259.56
2022-07-28T10:12:25.020Z,101262.13
2022-07-28T10:14:55.721Z,101262.66
2022-07-28T10:17:31.728Z,101264.94
2022-07-28T10:20:05.501Z,101260.56
2022-07-28T10:22:43.108Z,101267.94
2022-07-28T10:25:12.920Z,101262.94
2022-07-28T10:27:42.015Z,101260.06
2022-07-28T10:30:09.692Z,101261.69
2022-07-28T10:32:45.337Z,101263.31
2022-07-28T10:35:14.808Z,101267.06
2022-07-28T10:38:12.815Z,101266.44
2022-07-28T10:40:45.238Z,101263.59
2022-07-28T10:43:12.876Z,101263.81
2022-07-28T10:46:04.984Z,101260.94
2022-07-28T10:48:29.344Z,101264.59
2022-07-28T10:50:57.750Z,101261.25
2022-07-28T10:53:33.469Z,101259.38
2022-07-28T10:56:10.042Z,101255.28
2022-07-28T10:58:49.779Z,101243.50
2022-07-28T11:01:53.192Z,101254.22
2022-07-28T11:04:41.869Z,101257.91
2022-07-28T11:07:13.217Z,101262.59
2022-07-28T11:09:40.689Z,101261.94
2022-07-28T11:12:09.692Z,101263.16
2022-07-28T11:14:39.490Z,101251.59
2022-07-28T11:17:10.197Z,101264.41
2022-07-28T11:20:16.506Z,101253.50
2022-07-28T11:22:34.390Z,101257.84
2022-07-28T11:25:21.212Z,101258.50
2022-07-28T11:27:59.598Z,101260.75
2022-07-28T11:30:26.651Z,101266.72
2022-07-28T11:32:56.285Z,101259.69
2022-07-28T11:35:27.461Z,101262.97
2022-07-28T11:38:08.977Z,101258.22
2022-07-28T11:40:41.980Z,101258.63
2022-07-28T11:43:36.608Z,101268.31
2022-07-28T11:46:09.837Z,101247.22
2022-07-28T11:48:45.216Z,101258.09
2022-07-28T11:51:13.474Z,101250.88
2022-07-28T11:53:50.876Z,101253.94
2022-07-28T11:56:25.641Z,101246.47
2022-07-28T11:59:01.300Z,101252.25
2022-07-28T12:01:31.956Z,101246.41
2022-07-28T12:04:01.842Z,101241.25
2022-07-28T12:06:39.060Z,101237.31
2022-07-28T12:09:09.766Z,101254.81
2022-07-28T12:11:38.799Z,101249.25
2022-07-28T12:14:11.802Z,101247.97
2022-07-28T12:16:43.496Z,101252.53
2022-07-28T12:19:14.560Z,101247.38
2022-07-28T12:21:53.169Z,101238.13
2022-07-28T12:24:30.993Z,101242.53
2022-07-28T12:26:59.915Z,101239.03
2022-07-28T12:29:35.545Z,101242.59
2022-07-28T12:32:10.216Z,101241.63
2022-07-28T12:34:40.666Z,101242.22
2022-07-28T12:37:12.687Z,101234.75
2022-07-28T12:39:42.832Z,101235.16
2022-07-28T12:42:11.932Z,101236.78
2022-07-28T12:44:40.240Z,101231.19
2022-07-28T12:47:09.465Z,101238.06
2022-07-28T12:49:37.466Z,101238.28
2022-07-28T12:52:21.616Z,101235.75
2022-07-28T12:54:54.187Z,101241.25
2022-07-28T12:58:03.746Z,101239.19
2022-07-28T13:00:33.731Z,101232.53
2022-07-28T13:03:19.875Z,101236.03
2022-07-28T13:06:05.052Z,101226.66
2022-07-28T13:08:44.726Z,101229.78
2022-07-28T13:11:42.053Z,101225.00
2022-07-28T13:14:01.868Z,101228.50
2022-07-28T13:16:29.963Z,101227.84
2022-07-28T13:19:02.859Z,101229.47
2022-07-28T13:21:58.393Z,101221.56
2022-07-28T13:24:29.709Z,101228.13
2022-07-28T13:26:58.519Z,101225.59
2022-07-28T13:29:26.483Z,101225.72
2022-07-28T13:31:55.156Z,101219.94
2022-07-28T13:34:22.327Z,101221.69
2022-07-28T13:36:49.294Z,101226.63
2022-07-28T13:39:16.501Z,101228.63
2022-07-28T13:41:56.705Z,101219.06
2022-07-28T13:44:25.824Z,101226.22
2022-07-28T13:46:53.378Z,101224.34
2022-07-28T13:49:22.968Z,101229.25
2022-07-28T13:51:51.255Z,101224.13
2022-07-28T13:54:19.225Z,101226.75
2022-07-28T13:56:46.879Z,101230.72
2022-07-28T13:59:14.029Z,101226.56
2022-07-28T14:01:42.328Z,101235.25
2022-07-28T14:04:15.050Z,101226.56
2022-07-28T14:06:45.288Z,101230.09
2022-07-28T14:09:18.785Z,101231.94
2022-07-28T14:11:50.153Z,101224.34
2022-07-28T14:14:25.537Z,101231.38
2022-07-28T14:16:54.342Z,101229.72
2022-07-28T14:19:23.641Z,101228.09
2022-07-28T14:22:13.835Z,101216.97
2022-07-28T14:24:44.029Z,101219.06
2022-07-28T14:27:14.103Z,101222.44
2022-07-28T14:29:41.287Z,101227.19
2022-07-28T14:32:08.179Z,101236.31
2022-07-28T14:34:35.805Z,101225.19
2022-07-28T14:37:08.985Z,101231.03
2022-07-28T14:39:38.358Z,101235.78
2022-07-28T14:42:06.465Z,101229.03
2022-07-28T14:44:33.983Z,101225.16
2022-07-28T14:47:01.402Z,101224.53
2022-07-28T14:49:28.394Z,101227.22
2022-07-28T14:51:57.841Z,101224.75
2022-07-28T14:54:24.742Z,101223.16
2022-07-28T14:56:52.162Z,101232.59
2022-07-28T14:59:19.363Z,101220.69
2022-07-28T15:01:48.894Z,101224.41
2022-07-28T15:04:16.807Z,101220.31
2022-07-28T15:06:44.267Z,101222.19
2022-07-28T15:09:11.466Z,101222.75
2022-07-28T15:11:39.982Z,101215.53
2022-07-28T15:14:07.514Z,101216.13
2022-07-28T15:16:34.383Z,101217.78
2022-07-28T15:19:01.556Z,101219.41
2022-07-28T15:21:34.290Z,101217.78
2022-07-28T15:24:03.805Z,101216.72
2022-07-28T15:26:30.775Z,101213.59
2022-07-28T15:28:57.636Z,101209.63
2022-07-28T15:31:27.270Z,101213.94
2022-07-28T15:33:57.677Z,101212.91
2022-07-28T15:36:25.835Z,101216.41
2022-07-28T15:38:53.825Z,101214.78
2022-07-28T15:41:21.070Z,101219.53
2022-07-28T15:43:47.906Z,101211.94
2022-07-28T15:46:14.942Z,101215.31
2022-07-28T15:48:44.010Z,101222.75
2022-07-28T15:51:11.458Z,101216.81
2022-07-28T15:53:39.211Z,101220.53
2022-07-28T15:56:06.554Z,101216.41
2022-07-28T15:58:33.499Z,101219.94
2022-07-28T16:01:01.607Z,101220.53
2022-07-28T16:03:30.266Z,101226.72
2022-07-28T16:05:59.014Z,101223.78
2022-07-28T16:08:26.666Z,101227.31
2022-07-28T16:10:54.718Z,101223.78
2022-07-28T16:13:36.377Z,101232.91
2022-07-28T16:16:09.314Z,101235.66
2022-07-28T16:18:38.263Z,101235.66
2022-07-28T16:21:06.631Z,101238.34
2022-07-28T16:23:34.093Z,101241.88
2022-07-28T16:26:01.450Z,101241.03
2022-07-28T16:28:28.566Z,101238.19
2022-07-28T16:30:55.497Z,101241.78
2022-07-28T16:33:22.454Z,101240.13
2022-07-28T16:35:49.506Z,101242.00
2022-07-28T16:38:19.415Z,101246.56
2022-07-28T16:40:46.449Z,101244.69
2022-07-28T16:43:13.841Z,101239.31
2022-07-28T16:45:41.190Z,101237.69
2022-07-28T16:48:09.136Z,101241.19
2022-07-28T16:50:36.500Z,101240.94
2022-07-28T16:53:06.923Z,101235.59
2022-07-28T16:55:33.965Z,101239.91
2022-07-28T16:58:06.650Z,101239.91
2022-07-28T17:00:33.709Z,101237.84
2022-07-28T17:03:01.157Z,101239.91
2022-07-28T17:05:27.993Z,101235.81
2022-07-28T17:08:08.518Z,101249.88
2022-07-28T17:10:35.712Z,101248.28
2022-07-28T17:13:03.437Z,101253.84
2022-07-28T17:15:30.515Z,101254.50
2022-07-28T17:18:08.024Z,101256.81
2022-07-28T17:20:36.012Z,101250.00
2022-07-28T17:23:04.495Z,101252.91
2022-07-28T17:26:16.186Z,101255.44
2022-07-28T17:28:18.739Z,101253.19
2022-07-28T17:30:46.139Z,101254.03
2022-07-28T17:33:13.186Z,101256.09
2022-07-28T17:35:40.308Z,101245.16
2022-07-28T17:38:16.375Z,101246.78
2022-07-28T17:40:44.884Z,101253.81
2022-07-28T17:43:12.460Z,101249.22
2022-07-28T17:45:40.076Z,101253.56
2022-07-28T17:48:14.873Z,101249.03
2022-07-28T17:50:44.695Z,101254.38
2022-07-28T17:53:11.689Z,101263.72
2022-07-28T17:56:00.402Z,101255.06
2022-07-28T17:58:43.057Z,101259.81
2022-07-28T18:01:12.582Z,101256.75
2022-07-28T18:03:58.164Z,101264.44
2022-07-28T18:06:35.644Z,101261.97
2022-07-28T18:09:06.539Z,101254.38
2022-07-28T18:11:56.693Z,101259.13
2022-07-28T18:14:27.583Z,101258.53
2022-07-28T18:16:55.144Z,101260.97
2022-07-28T18:19:22.718Z,101260.97
2022-07-28T18:21:49.996Z,101257.09
2022-07-28T18:24:18.565Z,101264.31
2022-07-28T18:26:45.810Z,101262.91
2022-07-28T18:29:12.833Z,101264.34
2022-07-28T18:31:45.868Z,101276.38
2022-07-28T18:34:14.414Z,101276.81
2022-07-28T18:36:41.853Z,101272.47
2022-07-28T18:39:09.027Z,101278.25
2022-07-28T18:41:46.876Z,101279.53
2022-07-28T18:44:18.053Z,101276.22
2022-07-28T18:46:46.074Z,101284.53
2022-07-28T18:49:13.597Z,101284.72
2022-07-28T18:51:45.377Z,101286.38
2022-07-28T18:54:14.299Z,101287.19
2022-07-28T18:56:41.891Z,101278.53
2022-07-28T18:59:08.912Z,101292.16
2022-07-28T19:01:35.982Z,101285.38
2022-07-28T19:04:03.389Z,101281.25
2022-07-28T19:06:30.367Z,101283.34
2022-07-28T19:08:57.223Z,101285.41
2022-07-28T19:11:24.292Z,101283.97
2022-07-28T19:13:51.338Z,101281.91
2022-07-28T19:16:19.783Z,101282.97
2022-07-28T19:18:46.904Z,101284.00
2022-07-28T19:21:14.053Z,101293.28
2022-07-28T19:23:41.175Z,101287.75
2022-07-28T19:26:08.319Z,101287.16
2022-07-28T19:28:36.169Z,101290.25
2022-07-28T19:31:10.662Z,101296.63
2022-07-28T19:33:40.193Z,101300.56
2022-07-28T19:36:13.907Z,101298.34
2022-07-28T19:38:41.640Z,101303.91
2022-07-28T19:41:09.877Z,101305.97
2022-07-28T19:43:36.937Z,101307.00
2022-07-28T19:46:04.120Z,101309.91
2022-07-28T19:48:31.453Z,101310.31
2022-07-28T19:50:58.764Z,101315.09
2022-07-28T19:53:32.049Z,101312.59
2022-07-28T19:55:59.669Z,101311.97
2022-07-28T19:58:27.176Z,101314.91
2022-07-28T20:00:56.434Z,101316.75
2022-07-28T20:04:01.614Z,101322.94
2022-07-28T20:06:12.082Z,101326.25
2022-07-28T20:08:40.548Z,101320.06
2022-07-28T20:11:08.286Z,101324.22
2022-07-28T20:13:35.131Z,101332.44
2022-07-28T20:16:02.018Z,101336.34
2022-07-28T20:18:28.999Z,101337.41
2022-07-28T20:20:55.823Z,101337.63
2022-07-28T20:23:22.731Z,101337.00
2022-07-28T20:25:49.590Z,101340.69
2022-07-28T20:28:16.655Z,101333.31
2022-07-28T20:30:43.656Z,101338.47
2022-07-28T20:33:10.472Z,101338.91
2022-07-28T20:35:37.595Z,101340.94
2022-07-28T20:38:06.164Z,101337.22
2022-07-28T20:40:33.177Z,101345.47
2022-07-28T20:43:00.038Z,101344.84
2022-07-28T20:45:26.925Z,101348.56
2022-07-28T20:47:59.707Z,101345.69
2022-07-28T20:50:26.786Z,101347.97
2022-07-28T20:52:53.623Z,101340.38
2022-07-28T20:55:21.057Z,101353.50
2022-07-28T20:57:53.705Z,101348.97
2022-07-28T21:00:20.988Z,101351.91
2022-07-28T21:02:47.894Z,101352.91
2022-07-28T21:05:26.859Z,101349.81
2022-07-28T21:08:06.529Z,101352.09
2022-07-28T21:10:36.845Z,101358.88
2022-07-28T21:13:03.732Z,101352.09
2022-07-28T21:15:30.896Z,101355.59
2022-07-28T21:18:00.428Z,101364.66
2022-07-28T21:20:27.346Z,101364.88
2022-07-28T21:22:54.218Z,101362.38
2022-07-28T21:25:21.646Z,101365.25
2022-07-28T21:28:06.958Z,101367.34
2022-07-28T21:30:33.754Z,101363.00
2022-07-28T21:33:00.706Z,101364.47
2022-07-28T21:35:27.559Z,101358.69
2022-07-28T21:37:59.660Z,101361.78
2022-07-28T21:40:26.599Z,101359.91
2022-07-28T21:42:53.502Z,101360.34
2022-07-28T21:45:20.354Z,101359.50
2022-07-28T21:47:47.878Z,101362.19
2022-07-28T21:50:15.186Z,101361.34
2022-07-28T21:52:42.316Z,101364.03
2022-07-28T21:55:09.804Z,101363.22
2022-07-28T21:57:36.601Z,101364.22
2022-07-28T22:00:07.471Z,101369.16
2022-07-28T22:02:34.551Z,101374.53
2022-07-28T22:05:01.482Z,101366.50
2022-07-28T22:07:28.545Z,101373.88
2022-07-28T22:09:55.382Z,101373.28
2022-07-28T22:12:22.699Z,101377.81
2022-07-28T22:14:49.541Z,101378.63
2022-07-28T22:17:17.226Z,101376.97
2022-07-28T22:19:44.065Z,101379.84
2022-07-28T22:22:11.440Z,101375.94
2022-07-28T22:24:38.288Z,101372.44
2022-07-28T22:27:05.398Z,101372.66
2022-07-28T22:29:32.201Z,101369.56
2022-07-28T22:31:59.691Z,101374.91
2022-07-28T22:34:26.860Z,101374.31
2022-07-28T22:36:53.804Z,101380.63
2022-07-28T22:39:20.725Z,101367.66
2022-07-28T22:41:48.210Z,101381.25
2022-07-28T22:44:15.509Z,101369.31
2022-07-28T22:46:42.611Z,101383.47
2022-07-28T22:49:10.359Z,101390.06
2022-07-28T22:51:37.260Z,101385.53
2022-07-28T22:54:04.201Z,101391.06
2022-07-28T22:56:34.986Z,101385.13
2022-07-28T22:59:04.989Z,101390.84
2022-07-28T23:01:32.010Z,101390.03
2022-07-28T23:03:58.984Z,101381.19
2022-07-28T23:06:26.584Z,101378.13
2022-07-28T23:08:53.833Z,101378.13
2022-07-28T23:11:20.968Z,101380.59
2022-07-28T23:13:47.909Z,101387.97
2022-07-28T23:16:17.193Z,101388.16
2022-07-28T23:18:44.623Z,101386.09
2022-07-28T23:21:12.492Z,101391.66
2022-07-28T23:23:39.708Z,101386.28
2022-07-28T23:26:06.656Z,101382.97
2022-07-28T23:28:33.574Z,101391.00
2022-07-28T23:31:00.774Z,101385.06
2022-07-28T23:33:55.021Z,101387.28
2022-07-28T23:36:16.975Z,101394.91
2022-07-28T23:38:54.834Z,101386.47
2022-07-28T23:41:21.760Z,101393.84
2022-07-28T23:43:48.688Z,101392.19
2022-07-28T23:46:15.748Z,101393.22
2022-07-28T23:48:42.998Z,101400.19
2022-07-28T23:51:09.997Z,101389.88
2022-07-28T23:53:37.902Z,101387.59
2022-07-28T23:56:05.082Z,101391.47
2022-07-28T23:58:31.928Z,101385.91
